createdAt,value
2022-11-28T00:01:34.078Z,9.23
2022-11-28T00:04:01.319Z,11.27
2022-11-28T00:06:28.438Z,8.50
2022-11-28T00:08:55.634Z,11.30
2022-11-28T00:11:22.271Z,9.60
2022-11-28T00:13:48.912Z,8.90
2022-11-28T00:16:18.294Z,9.63
2022-11-28T00:18:44.998Z,10.37
2022-11-28T00:21:14.350Z,16.33
2022-11-28T00:23:42.368Z,12.40
2022-11-28T00:26:16.445Z,9.60
2022-11-28T00:28:43.415Z,11.43
2022-11-28T00:31:28.096Z,8.47
2022-11-28T00:33:55.301Z,11.00
2022-11-28T00:36:22.809Z,11.57
2022-11-28T00:38:49.984Z,12.63
2022-11-28T00:41:19.472Z,13.20
2022-11-28T00:43:47.446Z,9.43
2022-11-28T00:46:15.294Z,9.70
2022-11-28T00:48:42.050Z,9.23
2022-11-28T00:51:11.531Z,6.80
2022-11-28T00:53:40.462Z,9.93
2022-11-28T00:56:08.165Z,11.63
2022-11-28T00:58:35.605Z,7.77
2022-11-28T01:01:15.802Z,7.70
2022-11-28T01:03:43.246Z,11.17
2022-11-28T01:06:11.014Z,6.73
2022-11-28T01:08:38.139Z,7.70
2022-11-28T01:11:12.096Z,6.60
2022-11-28T01:13:39.748Z,7.13
2022-11-28T01:16:07.380Z,7.20
2022-11-28T01:18:34.426Z,7.00
2022-11-28T01:21:01.144Z,7.37
2022-11-28T01:23:27.931Z,8.10
2022-11-28T01:25:54.560Z,7.03
2022-11-28T01:28:21.221Z,8.10
2022-11-28T01:30:47.838Z,7.17
2022-11-28T01:33:14.533Z,6.70
2022-11-28T01:35:41.292Z,6.30
2022-11-28T01:38:07.929Z,5.77
2022-11-28T01:40:34.501Z,7.10
2022-11-28T01:43:01.093Z,13.00
2022-11-28T01:45:32.531Z,6.43
2022-11-28T01:48:03.319Z,8.70
2022-11-28T01:50:32.082Z,8.80
2022-11-28T01:53:04.620Z,7.60
2022-11-28T01:55:35.465Z,7.57
2022-11-28T01:58:02.153Z,8.30
2022-11-28T02:00:28.858Z,7.07
2022-11-28T02:03:15.370Z,8.73
2022-11-28T02:05:42.174Z,6.10
2022-11-28T02:08:10.050Z,6.00
2022-11-28T02:11:14.281Z,8.83
2022-11-28T02:14:02.907Z,7.80
2022-11-28T02:16:48.430Z,6.90
2022-11-28T02:19:20.870Z,6.60
2022-11-28T02:21:50.583Z,7.03
2022-11-28T02:25:08.860Z,7.53
2022-11-28T02:28:01.686Z,6.87
2022-11-28T02:30:51.298Z,5.77
2022-11-28T02:33:20.807Z,11.63
2022-11-28T02:35:55.009Z,6.50
2022-11-28T02:38:27.557Z,9.50
2022-11-28T02:41:12.109Z,7.33
2022-11-28T02:43:53.050Z,7.60
2022-11-28T02:46:48.714Z,7.80
2022-11-28T02:49:36.261Z,6.50
2022-11-28T02:52:45.385Z,6.90
2022-11-28T02:55:13.576Z,7.07
2022-11-28T02:57:46.918Z,7.90
2022-11-28T03:00:34.813Z,7.53
2022-11-28T03:03:01.425Z,11.43
2022-11-28T03:05:43.246Z,6.07
2022-11-28T03:09:06.866Z,6.10
2022-11-28T03:12:11.980Z,7.73
2022-11-28T03:15:00.447Z,7.67
2022-11-28T03:17:36.130Z,8.50
2022-11-28T03:20:17.288Z,8.70
2022-11-28T03:22:49.756Z,9.27
2022-11-28T03:25:39.318Z,8.13
2022-11-28T03:28:19.542Z,9.67
2022-11-28T03:30:52.551Z,9.63
2022-11-28T03:33:22.234Z,7.07
2022-11-28T03:35:54.398Z,8.30
2022-11-28T03:38:28.520Z,10.70
2022-11-28T03:40:59.852Z,8.50
2022-11-28T03:43:32.873Z,7.17
2022-11-28T03:46:04.244Z,14.83
2022-11-28T03:48:34.917Z,9.23
2022-11-28T03:51:21.564Z,8.57
2022-11-28T03:53:56.921Z,6.80
2022-11-28T03:56:47.410Z,9.60
2022-11-28T03:59:21.590Z,9.00
2022-11-28T04:01:58.374Z,7.80
2022-11-28T04:04:50.866Z,10.70
2022-11-28T04:07:52.786Z,8.30
2022-11-28T04:10:34.557Z,8.73
2022-11-28T04:13:23.005Z,8.00
2022-11-28T04:16:19.377Z,7.63
2022-11-28T04:19:10.645Z,8.87
2022-11-28T04:22:05.127Z,9.83
2022-11-28T04:24:37.341Z,7.30
2022-11-28T04:27:11.224Z,9.67
2022-11-28T04:29:44.657Z,7.40
2022-11-28T04:32:13.967Z,10.50
2022-11-28T04:34:45.470Z,11.30
2022-11-28T04:37:15.118Z,8.60
2022-11-28T04:39:44.859Z,10.60
2022-11-28T04:42:26.497Z,9.83
2022-11-28T04:45:02.760Z,10.90
2022-11-28T04:47:29.962Z,12.23
2022-11-28T04:49:56.690Z,7.77
2022-11-28T04:52:39.128Z,9.00
2022-11-28T04:55:40.660Z,11.37
2022-11-28T04:58:19.369Z,11.73
2022-11-28T05:00:49.709Z,11.90
2022-11-28T05:03:17.360Z,10.23
2022-11-28T05:05:49.713Z,11.47
2022-11-28T05:08:17.604Z,10.77
2022-11-28T05:10:44.633Z,8.43
2022-11-28T05:13:11.224Z,11.93
2022-11-28T05:15:37.873Z,11.60
2022-11-28T05:18:05.065Z,12.77
2022-11-28T05:20:32.176Z,10.20
2022-11-28T05:22:58.857Z,13.27
2022-11-28T05:25:25.558Z,16.40
2022-11-28T05:27:52.198Z,11.10
2022-11-28T05:30:18.845Z,12.50
2022-11-28T05:32:45.379Z,13.37
2022-11-28T05:35:12.048Z,9.33
2022-11-28T05:37:39.011Z,12.53
2022-11-28T05:40:06.532Z,13.30
2022-11-28T05:42:35.246Z,12.53
2022-11-28T05:45:02.520Z,14.53
2022-11-28T05:47:33.160Z,14.33
2022-11-28T05:49:59.892Z,13.20
2022-11-28T05:52:29.679Z,10.77
2022-11-28T05:54:56.435Z,12.87
2022-11-28T05:57:23.093Z,13.93
2022-11-28T05:59:49.699Z,12.23
2022-11-28T06:02:16.379Z,13.47
2022-11-28T06:04:43.180Z,13.17
2022-11-28T06:07:09.781Z,11.40
2022-11-28T06:09:39.408Z,13.97
2022-11-28T06:12:06.293Z,14.03
2022-11-28T06:14:32.945Z,9.37
2022-11-28T06:16:59.681Z,13.10
2022-11-28T06:19:26.396Z,18.30
2022-11-28T06:21:53.569Z,16.57
2022-11-28T06:24:20.141Z,16.30
2022-11-28T06:26:46.964Z,17.10
2022-11-28T06:29:13.629Z,14.90
2022-11-28T06:31:40.349Z,14.57
2022-11-28T06:34:06.991Z,17.53
2022-11-28T06:36:34.037Z,15.93
2022-11-28T06:39:00.641Z,14.20
2022-11-28T06:41:27.230Z,14.13
2022-11-28T06:43:53.828Z,14.17
2022-11-28T06:46:21.742Z,15.80
2022-11-28T06:48:51.168Z,15.13
2022-11-28T06:51:19.310Z,14.17
2022-11-28T06:53:45.898Z,14.83
2022-11-28T06:56:15.480Z,13.73
2022-11-28T06:58:43.197Z,17.93
2022-11-28T07:01:14.638Z,15.50
2022-11-28T07:03:41.956Z,15.33
2022-11-28T07:06:08.931Z,20.43
2022-11-28T07:08:35.866Z,17.33
2022-11-28T07:11:17.034Z,24.77
2022-11-28T07:13:45.838Z,17.37
2022-11-28T07:16:22.030Z,19.30
2022-11-28T07:18:48.906Z,15.50
2022-11-28T07:21:16.376Z,16.23
2022-11-28T07:23:44.088Z,19.90
2022-11-28T07:26:12.939Z,18.07
2022-11-28T07:28:39.770Z,14.90
2022-11-28T07:31:12.386Z,13.67
2022-11-28T07:33:41.209Z,17.57
2022-11-28T07:36:12.429Z,13.50
2022-11-28T07:38:39.001Z,15.17
2022-11-28T07:41:08.268Z,17.40
2022-11-28T07:43:34.973Z,17.43
2022-11-28T07:46:10.821Z,17.53
2022-11-28T07:48:37.701Z,16.30
2022-11-28T07:51:10.371Z,18.57
2022-11-28T07:53:37.804Z,14.20
2022-11-28T07:56:07.021Z,15.43
2022-11-28T07:58:34.808Z,14.43
2022-11-28T08:01:11.282Z,12.17
2022-11-28T08:03:38.002Z,15.50
2022-11-28T08:06:05.675Z,15.67
2022-11-28T08:08:33.105Z,15.17
2022-11-28T08:11:01.823Z,14.60
2022-11-28T08:13:28.579Z,17.57
2022-11-28T08:15:55.576Z,14.20
2022-11-28T08:18:22.620Z,13.43
2022-11-28T08:20:49.414Z,16.50
2022-11-28T08:23:16.073Z,12.83
2022-11-28T08:25:42.669Z,13.57
2022-11-28T08:28:09.268Z,17.13
2022-11-28T08:30:35.911Z,16.33
2022-11-28T08:33:02.554Z,14.27
2022-11-28T08:35:29.135Z,14.03
2022-11-28T08:38:00.487Z,13.40
2022-11-28T08:40:28.798Z,15.10
2022-11-28T08:42:55.827Z,15.73
2022-11-28T08:45:22.455Z,16.30
2022-11-28T08:47:49.114Z,13.67
2022-11-28T08:50:15.821Z,16.20
2022-11-28T08:52:42.417Z,15.17
2022-11-28T08:55:09.399Z,15.57
2022-11-28T08:57:35.958Z,15.77
2022-11-28T09:00:02.815Z,19.20
2022-11-28T09:02:29.484Z,17.70
2022-11-28T09:04:56.147Z,16.53
2022-11-28T09:07:22.754Z,14.23
2022-11-28T09:09:49.706Z,15.33
2022-11-28T09:12:16.796Z,19.30
2022-11-28T09:14:43.395Z,15.70
2022-11-28T09:17:10.060Z,19.80
2022-11-28T09:19:36.808Z,20.10
2022-11-28T09:22:03.374Z,22.13
2022-11-28T09:24:29.953Z,16.20
2022-11-28T09:26:56.826Z,17.23
2022-11-28T09:29:23.446Z,17.33
2022-11-28T09:31:50.047Z,17.90
2022-11-28T09:34:16.627Z,16.90
2022-11-28T09:36:43.389Z,17.40
2022-11-28T09:39:10.152Z,20.60
2022-11-28T09:41:58.802Z,18.80
2022-11-28T09:44:45.422Z,16.90
2022-11-28T09:47:25.856Z,21.87
2022-11-28T09:49:58.070Z,16.83
2022-11-28T09:52:43.142Z,18.20
2022-11-28T09:55:39.693Z,22.07
2022-11-28T09:58:19.186Z,21.90
2022-11-28T10:00:56.159Z,19.10
2022-11-28T10:03:43.520Z,19.20
2022-11-28T10:06:39.303Z,20.60
2022-11-28T10:09:22.563Z,18.90
2022-11-28T10:12:07.457Z,18.53
2022-11-28T10:14:46.381Z,21.73
2022-11-28T10:17:40.962Z,15.10
2022-11-28T10:20:13.983Z,15.57
2022-11-28T10:22:53.819Z,14.87
2022-11-28T10:25:44.896Z,15.70
2022-11-28T10:28:16.666Z,14.93
2022-11-28T10:30:48.825Z,15.90
2022-11-28T10:33:25.285Z,14.60
2022-11-28T10:35:56.085Z,20.93
2022-11-28T10:38:27.356Z,19.17
2022-11-28T10:41:04.796Z,15.40
2022-11-28T10:43:48.696Z,15.63
2022-11-28T10:46:40.045Z,18.30
2022-11-28T10:49:22.773Z,16.20
2022-11-28T10:51:50.037Z,16.10
2022-11-28T10:54:38.428Z,19.53
2022-11-28T10:57:27.666Z,16.13
2022-11-28T11:00:10.694Z,12.87
2022-11-28T11:02:45.963Z,15.50
2022-11-28T11:05:28.176Z,16.20
2022-11-28T11:08:12.996Z,16.23
2022-11-28T11:11:05.539Z,16.33
2022-11-28T11:13:36.077Z,19.77
2022-11-28T11:16:11.531Z,16.23
2022-11-28T11:18:53.749Z,17.03
2022-11-28T11:21:24.433Z,22.13
2022-11-28T11:24:12.659Z,15.20
2022-11-28T11:26:43.998Z,18.57
2022-11-28T11:29:37.299Z,13.50
2022-11-28T11:32:06.485Z,13.70
2022-11-28T11:34:53.897Z,18.27
2022-11-28T11:37:20.638Z,14.70
2022-11-28T11:39:52.408Z,13.37
2022-11-28T11:42:26.589Z,16.07
2022-11-28T11:44:54.139Z,17.27
2022-11-28T11:47:40.673Z,28.03
2022-11-28T11:50:16.422Z,17.70
2022-11-28T11:52:43.117Z,16.83
2022-11-28T11:55:16.116Z,13.13
2022-11-28T11:57:54.394Z,16.40
2022-11-28T12:00:25.210Z,14.50
2022-11-28T12:03:04.732Z,17.10
2022-11-28T12:06:12.162Z,15.77
2022-11-28T12:08:38.073Z,15.13
2022-11-28T12:11:16.612Z,14.37
2022-11-28T12:13:43.562Z,15.27
2022-11-28T12:16:16.202Z,12.90
2022-11-28T12:19:01.341Z,13.33
2022-11-28T12:21:37.086Z,15.93
2022-11-28T12:24:09.932Z,16.37
2022-11-28T12:26:41.720Z,15.87
2022-11-28T12:29:26.543Z,16.43
2022-11-28T12:32:14.311Z,17.40
2022-11-28T12:35:02.656Z,13.70
2022-11-28T12:41:03.387Z,17.00
2022-11-28T12:43:48.208Z,19.13
2022-11-28T12:46:26.830Z,17.77
2022-11-28T12:49:19.062Z,15.60
2022-11-28T12:51:45.601Z,17.47
2022-11-28T12:54:42.420Z,15.23
2022-11-28T12:57:20.941Z,14.97
2022-11-28T13:00:11.335Z,16.60
2022-11-28T13:02:59.651Z,16.63
2022-11-28T13:05:44.910Z,15.17
2022-11-28T13:08:34.460Z,13.80
2022-11-28T13:11:23.866Z,14.27
2022-11-28T13:14:05.251Z,12.67
2022-11-28T13:16:39.877Z,17.70
2022-11-28T13:19:15.418Z,16.10
2022-11-28T13:21:55.705Z,15.33
2022-11-28T13:24:31.360Z,15.57
2022-11-28T13:27:22.151Z,15.20
2022-11-28T13:30:15.377Z,18.30
2022-11-28T13:32:49.107Z,17.67
2022-11-28T13:35:18.710Z,17.03
2022-11-28T13:40:53.167Z,15.77
2022-11-28T13:43:46.411Z,15.80
2022-11-28T13:46:14.286Z,14.50
2022-11-28T13:51:32.990Z,14.30
2022-11-28T13:54:19.158Z,15.00
2022-11-28T13:56:48.038Z,17.07
2022-11-28T13:59:23.140Z,13.93
2022-11-28T14:01:58.943Z,16.00
2022-11-28T14:04:27.993Z,13.37
2022-11-28T14:07:02.319Z,19.47
2022-11-28T14:09:52.264Z,16.77
2022-11-28T14:12:25.003Z,16.03
2022-11-28T14:15:10.972Z,16.40
2022-11-28T14:18:47.796Z,15.83
2022-11-28T14:21:23.947Z,15.90
2022-11-28T14:24:06.513Z,18.77
2022-11-28T14:26:36.978Z,16.90
2022-11-28T14:29:06.458Z,18.10
2022-11-28T14:31:40.160Z,19.13
2022-11-28T14:34:30.950Z,15.50
2022-11-28T14:37:19.551Z,15.07
2022-11-28T14:39:48.686Z,19.67
2022-11-28T14:42:36.802Z,13.90
2022-11-28T14:45:23.230Z,18.30
2022-11-28T14:48:15.582Z,15.77
2022-11-28T14:50:42.268Z,17.20
2022-11-28T14:53:33.843Z,18.87
2022-11-28T14:56:13.570Z,16.80
2022-11-28T14:58:47.385Z,18.97
2022-11-28T15:01:25.044Z,17.63
2022-11-28T15:04:03.183Z,16.07
2022-11-28T15:06:36.033Z,16.87
2022-11-28T15:09:07.157Z,18.10
2022-11-28T15:11:59.335Z,17.57
2022-11-28T15:14:28.901Z,16.40
2022-11-28T15:17:00.488Z,16.20
2022-11-28T15:19:34.669Z,16.90
2022-11-28T15:22:01.690Z,16.10
2022-11-28T15:24:35.588Z,16.07
2022-11-28T15:27:08.760Z,21.43
2022-11-28T15:29:36.800Z,43.37
2022-11-28T15:32:04.916Z,34.67
2022-11-28T15:34:34.740Z,29.70
2022-11-28T15:37:05.947Z,33.57
2022-11-28T15:39:39.403Z,28.03
2022-11-28T15:42:18.168Z,32.83
2022-11-28T15:44:45.882Z,21.33
2022-11-28T15:47:19.802Z,27.90
2022-11-28T15:49:57.760Z,22.30
2022-11-28T15:52:24.430Z,26.73
2022-11-28T15:54:51.525Z,18.47
2022-11-28T15:57:28.340Z,31.57
2022-11-28T15:59:56.588Z,32.17
2022-11-28T16:02:33.936Z,25.23
2022-11-28T16:05:16.067Z,22.13
2022-11-28T16:07:44.287Z,22.50
2022-11-28T16:10:28.324Z,19.10
2022-11-28T16:13:04.610Z,19.10
2022-11-28T16:15:31.699Z,22.47
2022-11-28T16:17:58.500Z,20.23
2022-11-28T16:20:28.444Z,20.43
2022-11-28T16:22:59.966Z,17.10
2022-11-28T16:25:27.233Z,18.00
2022-11-28T16:27:57.254Z,19.63
2022-11-28T16:30:41.938Z,19.77
2022-11-28T16:33:53.681Z,27.60
2022-11-28T16:36:36.893Z,23.20
2022-11-28T16:39:14.918Z,20.63
2022-11-28T16:41:54.741Z,18.00
2022-11-28T16:44:24.829Z,25.37
2022-11-28T16:46:57.053Z,23.37
2022-11-28T16:49:36.452Z,26.60
2022-11-28T16:52:24.127Z,27.00
2022-11-28T16:54:51.961Z,26.00
2022-11-28T16:57:20.222Z,22.80
2022-11-28T16:59:48.152Z,22.30
2022-11-28T17:02:22.976Z,26.63
2022-11-28T17:04:51.676Z,23.73
2022-11-28T17:07:21.947Z,23.43
2022-11-28T17:09:49.924Z,22.83
2022-11-28T17:12:29.911Z,21.37
2022-11-28T17:14:58.309Z,25.17
2022-11-28T17:17:25.662Z,27.23
2022-11-28T17:19:52.407Z,27.70
2022-11-28T17:22:23.139Z,26.87
2022-11-28T17:24:51.825Z,25.03
2022-11-28T17:27:18.569Z,22.80
2022-11-28T17:29:45.319Z,25.30
2022-11-28T17:32:13.570Z,21.37
2022-11-28T17:34:42.165Z,24.33
2022-11-28T17:37:09.828Z,22.40
2022-11-28T17:39:36.501Z,17.93
2022-11-28T17:42:03.709Z,22.67
2022-11-28T17:44:37.509Z,20.87
2022-11-28T17:47:04.727Z,27.23
2022-11-28T17:49:31.636Z,27.00
2022-11-28T17:51:58.848Z,23.97
2022-11-28T17:54:26.679Z,28.00
2022-11-28T17:56:54.126Z,24.73
2022-11-28T17:59:23.594Z,21.60
2022-11-28T18:01:50.764Z,24.30
2022-11-28T18:04:23.175Z,24.27
2022-11-28T18:06:49.990Z,24.43
2022-11-28T18:09:16.748Z,22.93
2022-11-28T18:11:46.414Z,19.83
2022-11-28T18:14:13.406Z,16.47
2022-11-28T18:16:42.895Z,22.30
2022-11-28T18:19:10.369Z,24.53
2022-11-28T18:21:37.265Z,26.60
2022-11-28T18:24:04.697Z,23.40
2022-11-28T18:26:31.832Z,21.17
2022-11-28T18:28:58.608Z,23.23
2022-11-28T18:31:28.683Z,26.67
2022-11-28T18:34:04.076Z,23.97
2022-11-28T18:36:36.474Z,22.93
2022-11-28T18:39:14.520Z,26.77
2022-11-28T18:41:41.936Z,26.43
2022-11-28T18:44:10.675Z,23.77
2022-11-28T18:46:39.164Z,23.30
2022-11-28T18:49:06.127Z,21.77
2022-11-28T18:51:34.549Z,21.50
2022-11-28T18:54:04.113Z,28.40
2022-11-28T18:56:31.691Z,29.43
2022-11-28T18:58:59.073Z,28.70
2022-11-28T19:01:28.645Z,23.60
2022-11-28T19:04:03.968Z,22.50
2022-11-28T19:06:31.093Z,27.63
2022-11-28T19:09:00.804Z,25.07
2022-11-28T19:11:29.422Z,20.90
2022-11-28T19:13:57.103Z,23.90
2022-11-28T19:16:29.042Z,24.40
2022-11-28T19:18:55.888Z,23.60
2022-11-28T19:21:26.065Z,25.07
2022-11-28T19:23:55.164Z,22.93
2022-11-28T19:26:25.403Z,23.90
2022-11-28T19:28:54.055Z,24.20
2022-11-28T19:31:27.229Z,24.03
2022-11-28T19:34:02.378Z,26.40
2022-11-28T19:36:33.544Z,26.73
2022-11-28T19:39:00.851Z,23.63
2022-11-28T19:41:29.212Z,28.60
2022-11-28T19:43:57.401Z,29.67
2022-11-28T19:46:24.754Z,25.00
2022-11-28T19:48:51.907Z,23.53
2022-11-28T19:51:19.447Z,25.50
2022-11-28T19:53:46.844Z,21.97
2022-11-28T19:56:20.023Z,27.73
2022-11-28T19:58:47.125Z,26.10
2022-11-28T20:01:19.478Z,27.07
2022-11-28T20:03:50.086Z,21.00
2022-11-28T20:06:21.330Z,26.03
2022-11-28T20:08:49.408Z,29.13
2022-11-28T20:11:36.936Z,25.93
2022-11-28T20:14:06.805Z,27.97
2022-11-28T20:16:35.432Z,25.20
2022-11-28T20:19:05.010Z,29.60
2022-11-28T20:21:34.167Z,37.60
2022-11-28T20:24:05.147Z,26.77
2022-11-28T20:26:38.338Z,26.30
2022-11-28T20:29:06.161Z,23.17
2022-11-28T20:31:38.631Z,28.30
2022-11-28T20:34:06.447Z,25.80
2022-11-28T20:36:33.814Z,30.60
2022-11-28T20:39:01.231Z,28.03
2022-11-28T20:41:32.112Z,28.43
2022-11-28T20:44:04.306Z,27.87
2022-11-28T20:46:34.169Z,28.60
2022-11-28T20:49:03.383Z,27.50
2022-11-28T20:51:32.056Z,27.60
2022-11-28T20:53:59.670Z,30.20
2022-11-28T20:56:31.977Z,27.37
2022-11-28T20:59:00.646Z,26.80
2022-11-28T21:01:34.469Z,28.70
2022-11-28T21:04:03.477Z,27.43
2022-11-28T21:06:30.697Z,32.57
2022-11-28T21:08:57.775Z,34.67
2022-11-28T21:11:50.558Z,38.20
2022-11-28T21:14:14.321Z,31.30
2022-11-28T21:16:41.815Z,32.30
2022-11-28T21:19:09.506Z,27.63
2022-11-28T21:21:39.503Z,28.93
2022-11-28T21:24:11.993Z,31.03
2022-11-28T21:26:43.994Z,21.40
2022-11-28T21:29:13.464Z,26.27
2022-11-28T21:31:43.092Z,26.10
2022-11-28T21:34:16.482Z,33.10
2022-11-28T21:36:43.548Z,28.03
2022-11-28T21:39:13.746Z,35.47
2022-11-28T21:41:40.440Z,31.37
2022-11-28T21:44:07.708Z,27.60
2022-11-28T21:46:34.347Z,30.47
2022-11-28T21:49:04.605Z,28.10
2022-11-28T21:51:32.784Z,28.20
2022-11-28T21:53:59.672Z,31.00
2022-11-28T21:56:26.997Z,25.73
2022-11-28T21:58:54.073Z,30.47
2022-11-28T22:01:21.487Z,28.43
2022-11-28T22:03:49.107Z,29.10
2022-11-28T22:06:20.064Z,27.03
2022-11-28T22:08:51.617Z,25.93
2022-11-28T22:11:19.677Z,25.23
2022-11-28T22:13:47.175Z,30.63
2022-11-28T22:16:34.063Z,31.10
2022-11-28T22:19:01.530Z,30.13
2022-11-28T22:21:51.166Z,30.30
2022-11-28T22:24:15.197Z,32.07
2022-11-28T22:26:43.376Z,31.50
2022-11-28T22:29:10.065Z,32.80
2022-11-28T22:31:37.567Z,28.17
2022-11-28T22:34:04.353Z,33.90
2022-11-28T22:36:32.216Z,28.50
2022-11-28T22:38:59.085Z,27.53
2022-11-28T22:41:29.206Z,27.97
2022-11-28T22:44:00.831Z,28.07
2022-11-28T22:46:29.601Z,24.80
2022-11-28T22:48:59.955Z,28.67
2022-11-28T22:51:28.277Z,25.27
2022-11-28T22:54:00.734Z,27.70
2022-11-28T22:56:30.193Z,28.80
2022-11-28T22:58:58.371Z,31.70
2022-11-28T23:01:28.516Z,32.20
2022-11-28T23:03:55.688Z,32.53
2022-11-28T23:06:26.193Z,32.40
2022-11-28T23:08:57.621Z,29.20
2022-11-28T23:11:30.304Z,29.13
2022-11-28T23:13:58.298Z,26.30
2022-11-28T23:16:34.131Z,29.53
2022-11-28T23:19:05.830Z,25.40
2022-11-28T23:21:35.348Z,28.23
2022-11-28T23:24:03.160Z,26.60
2022-11-28T23:26:31.618Z,27.80
2022-11-28T23:29:03.087Z,25.60
2022-11-28T23:31:32.677Z,28.60
2022-11-28T23:34:01.305Z,25.47
2022-11-28T23:36:42.497Z,28.97
2022-11-28T23:39:16.342Z,27.70
2022-11-28T23:41:43.904Z,27.63
2022-11-28T23:44:12.317Z,30.27
2022-11-28T23:46:39.411Z,27.60
2022-11-28T23:49:06.819Z,30.30
2022-11-28T23:51:33.701Z,24.00
2022-11-28T23:54:00.645Z,28.87
2022-11-28T23:56:29.613Z,25.77
2022-11-28T23:58:57.391Z,30.23
